Time;durP1;ratioP1;P1;durP2;ratioP2;P2;SDS_P1;SDS_P2;PMS_P1;PMS_P2;Temp;Humidity;BMP_temperature;BMP_pressure;BME280_temperature;BME280_humidity;BME280_pressure;Samples;Min_cycle;Max_cycle;Signal;HPM_P1;HPM_P2
2022/08/05 00:00:17;;;;;;;4.00;2.20;;;;;;;24.09;42.17;98730.75;4485087;31;20160;-70
2022/08/05 00:02:46;;;;;;;4.90;2.80;;;;;;;24.15;42.33;98726.34;4485332;31;20472;-70
2022/08/05 00:05:21;;;;;;;4.07;2.62;;;;;;;24.14;42.13;98727.41;4485507;31;20100;-70
2022/08/05 00:08:08;;;;;;;4.85;2.60;;;;;;;24.11;42.30;98727.84;4485367;31;20518;-70
2022/08/05 00:10:59;;;;;;;4.60;2.60;;;;;;;24.01;42.62;98724.88;4485239;32;20172;-70
2022/08/05 00:13:31;;;;;;;2.90;2.37;;;;;;;23.98;42.51;98725.34;4484043;32;20509;-70
2022/08/05 00:16:08;;;;;;;5.05;2.30;;;;;;;23.95;42.54;98728.47;4485261;31;20080;-70
2022/08/05 00:18:41;;;;;;;4.93;2.22;;;;;;;23.96;42.70;98730.09;4485347;31;20088;-70
2022/08/05 00:21:11;;;;;;;4.60;2.25;;;;;;;23.95;42.73;98728.47;4485300;31;20086;-70
2022/08/05 00:23:42;;;;;;;8.85;2.60;;;;;;;23.87;42.88;98722.38;4485325;32;20084;-70
2022/08/05 00:26:14;;;;;;;4.50;2.53;;;;;;;23.79;43.24;98724.53;4485305;31;20112;-70
2022/08/05 00:28:43;;;;;;;5.12;2.45;;;;;;;23.79;43.10;98722.66;4485093;31;20088;-70
2022/08/05 00:31:12;;;;;;;5.22;2.60;;;;;;;23.80;43.07;98724.31;4484854;31;20096;-70
2022/08/05 00:33:39;;;;;;;3.60;2.70;;;;;;;23.81;42.77;98725.09;4483793;32;20116;-70
2022/08/05 00:36:26;;;;;;;3.03;2.72;;;;;;;23.80;42.87;98715.44;4485228;31;20540;-70
2022/08/05 00:39:14;;;;;;;5.93;2.58;;;;;;;23.72;43.04;98719.25;4485242;32;20428;-70
2022/08/05 00:41:45;;;;;;;2.90;2.10;;;;;;;23.64;43.34;98723.03;4485138;32;20111;-70
2022/08/05 00:44:22;;;;;;;3.78;2.50;;;;;;;23.53;43.63;98721.13;4484910;31;20138;-70
2022/08/05 00:46:58;;;;;;;3.97;2.50;;;;;;;23.55;43.73;98719.03;4485055;32;20588;-70
2022/08/05 00:49:31;;;;;;;2.90;2.50;;;;;;;23.63;43.39;98715.25;4485223;31;20076;-70
2022/08/05 00:52:18;;;;;;;5.12;2.78;;;;;;;23.52;43.88;98725.63;4485217;31;20104;-69
2022/08/05 00:54:54;;;;;;;5.68;2.58;;;;;;;23.44;43.78;98717.91;4484781;31;20385;-69
2022/08/05 00:57:23;;;;;;;4.43;2.53;;;;;;;23.45;43.95;98713.37;4485116;31;20081;-70
2022/08/05 01:00:06;;;;;;;4.03;2.60;;;;;;;23.52;43.32;98719.47;4484851;31;20436;-70
2022/08/05 01:02:37;;;;;;;9.38;2.78;;;;;;;23.49;43.62;98707.34;4484955;31;20129;-70
2022/08/05 01:05:04;;;;;;;6.00;2.42;;;;;;;23.46;43.38;98712.34;4484959;31;20137;-70
2022/08/05 01:07:36;;;;;;;4.35;2.85;;;;;;;23.44;43.42;98709.91;4485043;31;20141;-70
2022/08/05 01:10:28;;;;;;;4.18;2.60;;;;;;;23.34;43.66;98707.72;4484921;32;20092;-69
2022/08/05 01:13:07;;;;;;;7.18;2.65;;;;;;;23.25;43.80;98703.69;4483850;32;20148;-70
2022/08/05 01:15:51;;;;;;;6.22;2.62;;;;;;;23.19;44.19;98707.25;4483774;32;20145;-70
2022/08/05 01:18:30;;;;;;;4.03;2.92;;;;;;;23.21;43.98;98714.03;4483682;32;20488;-70
2022/08/05 01:21:01;;;;;;;3.10;2.60;;;;;;;23.25;43.84;98718.94;4483747;32;20092;-70
2022/08/05 01:23:34;;;;;;;4.55;2.70;;;;;;;23.23;43.93;98704.97;4484818;31;20068;-70
2022/08/05 01:26:17;;;;;;;3.90;2.40;;;;;;;23.20;43.65;98707.03;4483722;32;20127;-70
2022/08/05 01:28:56;;;;;;;2.40;2.20;;;;;;;23.26;43.57;98707.22;4484730;31;20079;-70
2022/08/05 01:31:41;;;;;;;4.57;2.80;;;;;;;23.17;43.92;98707.47;4484573;31;20088;-70
2022/08/05 01:34:34;;;;;;;5.45;2.50;;;;;;;23.19;43.85;98707.25;4483602;32;20144;-70
2022/08/05 01:37:07;;;;;;;4.95;2.47;;;;;;;23.15;43.77;98708.72;4484783;31;20420;-70
2022/08/05 01:39:36;;;;;;;5.73;2.57;;;;;;;23.06;43.93;98716.22;4483628;32;20096;-69
2022/08/05 01:42:16;;;;;;;5.78;2.70;;;;;;;23.00;44.14;98715.22;4483928;32;20092;-70
2022/08/05 01:44:44;;;;;;;3.10;2.50;;;;;;;22.86;44.58;98725.22;4483316;32;20176;-70
2022/08/05 01:47:21;;;;;;;5.50;2.78;;;;;;;22.82;44.84;98724.00;4484855;31;20123;-70
2022/08/05 01:49:51;;;;;;;6.25;2.75;;;;;;;22.68;45.16;98720.63;4484567;31;20126;-70
2022/08/05 01:52:29;;;;;;;11.20;2.95;;;;;;;22.67;45.51;98712.81;4484543;31;20554;-69
2022/08/05 01:55:01;;;;;;;18.25;3.25;;;;;;;22.74;45.25;98715.44;4483192;32;20080;-70
2022/08/05 01:57:34;;;;;;;6.12;2.40;;;;;;;22.69;45.33;98716.09;4484554;31;20118;-70
2022/08/05 02:00:22;;;;;;;7.40;2.50;;;;;;;22.53;45.64;98713.94;4483073;32;20112;-70
2022/08/05 02:03:02;;;;;;;5.97;2.17;;;;;;;22.38;46.21;98714.25;4484438;31;20476;-70
2022/08/05 02:05:32;;;;;;;3.40;2.53;;;;;;;22.28;46.43;98714.69;4484671;31;20096;-70
2022/08/05 02:08:02;;;;;;;4.37;3.08;;;;;;;22.25;46.52;98704.44;4484935;32;20589;-70
2022/08/05 02:10:39;;;;;;;5.57;3.03;;;;;;;22.25;46.74;98707.13;4485023;32;20100;-70
2022/08/05 02:13:14;;;;;;;7.25;2.50;;;;;;;22.19;46.75;98710.66;4485063;32;20114;-70
2022/08/05 02:15:50;;;;;;;4.65;3.08;;;;;;;22.19;46.92;98715.97;4485176;32;20085;-70
2022/08/05 02:18:23;;;;;;;5.37;2.70;;;;;;;22.11;46.96;98703.72;4485021;32;20093;-70
2022/08/05 02:21:05;;;;;;;4.80;2.78;;;;;;;22.15;46.83;98704.94;4485261;32;20091;-70
2022/08/05 02:23:43;;;;;;;6.28;3.03;;;;;;;22.05;46.96;98700.03;4484948;32;20092;-70
2022/08/05 02:26:15;;;;;;;3.58;2.78;;;;;;;21.96;47.16;98702.12;4486069;32;20080;-70
2022/08/05 02:28:44;;;;;;;4.28;2.50;;;;;;;21.92;47.46;98710.78;4486222;31;20111;-70
2022/08/05 02:31:21;;;;;;;3.03;2.72;;;;;;;21.91;47.39;98703.81;4485848;31;20156;-70
2022/08/05 02:33:57;;;;;;;4.40;2.78;;;;;;;21.89;47.55;98712.03;4484781;32;20088;-70
2022/08/05 02:36:26;;;;;;;3.78;2.42;;;;;;;21.77;47.95;98708.38;4484785;32;20161;-70
2022/08/05 02:38:59;;;;;;;4.10;2.37;;;;;;;21.76;47.88;98704.91;4486168;32;20088;-70
2022/08/05 02:41:27;;;;;;;4.82;3.20;;;;;;;21.70;48.10;98705.75;4484904;32;20127;-70
2022/08/05 02:44:15;;;;;;;2.90;2.60;;;;;;;21.69;48.15;98701.44;4485907;32;20092;-70
2022/08/05 02:46:44;;;;;;;6.40;2.50;;;;;;;21.69;48.20;98704.09;4484729;32;20152;-70
2022/08/05 02:49:33;;;;;;;3.37;2.60;;;;;;;21.66;47.98;98706.37;4485053;32;20465;-69
2022/08/05 02:52:08;;;;;;;4.68;2.53;;;;;;;21.72;47.94;98706.34;4484753;32;20114;-70
2022/08/05 02:54:38;;;;;;;3.45;2.75;;;;;;;21.66;48.31;98701.84;4486050;31;20107;-69
2022/08/05 02:57:12;;;;;;;6.18;2.60;;;;;;;21.71;48.04;98704.72;4484690;32;20433;-70
2022/08/05 02:59:59;;;;;;;4.45;2.78;;;;;;;21.71;48.15;98701.22;4484659;32;20105;-69
2022/08/05 03:02:31;;;;;;;3.28;2.70;;;;;;;21.73;48.00;98696.50;4484577;32;20108;-69
2022/08/05 03:04:59;;;;;;;3.20;2.58;;;;;;;21.76;48.01;98693.41;4484698;32;20096;-70
2022/08/05 03:07:27;;;;;;;6.15;2.60;;;;;;;21.79;47.76;98699.13;4485886;31;20193;-70
2022/08/05 03:10:15;;;;;;;3.90;2.62;;;;;;;21.77;47.69;98695.88;4485849;32;20116;-70
2022/08/05 03:12:52;;;;;;;4.07;2.80;;;;;;;21.80;47.74;98690.13;4485735;32;20077;-70
2022/08/05 03:15:21;;;;;;;3.40;2.55;;;;;;;21.86;47.68;98688.41;4485939;31;20096;-70
2022/08/05 03:17:53;;;;;;;4.43;2.90;;;;;;;21.79;47.77;98693.00;4485641;31;20412;-70
2022/08/05 03:20:22;;;;;;;3.40;2.78;;;;;;;21.84;47.70;98687.03;4485820;32;20126;-70
2022/08/05 03:22:52;;;;;;;4.78;2.70;;;;;;;21.78;47.82;98689.50;4485766;32;20570;-70
2022/08/05 03:25:25;;;;;;;4.22;2.67;;;;;;;21.83;47.69;98680.84;4485706;31;20096;-70
2022/08/05 03:28:12;;;;;;;3.60;2.60;;;;;;;21.92;47.57;98673.44;4485965;31;20139;-70
2022/08/05 03:30:41;;;;;;;6.28;3.42;;;;;;;21.87;47.73;98675.94;4485350;31;20100;-70
2022/08/05 03:33:08;;;;;;;4.78;3.80;;;;;;;21.97;47.49;98673.63;4485680;31;20092;-70
2022/08/05 03:35:35;;;;;;;3.15;2.65;;;;;;;21.99;47.29;98674.22;4485572;31;20556;-69
2022/08/05 03:38:11;;;;;;;3.28;2.37;;;;;;;21.98;47.20;98680.56;4484337;32;20081;-70
2022/08/05 03:40:41;;;;;;;4.00;2.92;;;;;;;22.15;46.80;98675.56;4485585;31;20100;-70
2022/08/05 03:43:14;;;;;;;4.43;2.80;;;;;;;22.28;46.45;98672.00;4485614;31;20142;-69
2022/08/05 03:46:02;;;;;;;7.12;2.40;;;;;;;22.36;46.36;98676.28;4485510;31;20388;-70
2022/08/05 03:48:30;;;;;;;6.43;3.08;;;;;;;22.42;46.21;98678.91;4485557;31;20536;-70
2022/08/05 03:51:13;;;;;;;4.60;3.10;;;;;;;22.43;46.21;98680.53;4485496;31;20423;-70
2022/08/05 03:54:11;;;;;;;7.60;3.05;;;;;;;22.43;46.12;98675.19;4485576;31;20381;-70
2022/08/05 03:56:59;;;;;;;13.43;3.20;;;;;;;22.48;45.91;98678.06;4484433;32;20084;-70
2022/08/05 03:59:33;;;;;;;16.70;3.15;;;;;;;22.54;45.97;98675.53;4485302;31;20114;-70
2022/08/05 04:02:23;;;;;;;6.87;2.97;;;;;;;22.50;45.83;98675.97;4484282;32;20584;-70
2022/08/05 04:05:07;;;;;;;10.43;2.90;;;;;;;22.61;45.69;98682.47;4484458;32;20118;-70
2022/08/05 04:07:38;;;;;;;5.35;2.70;;;;;;;22.61;45.75;98684.31;4484032;32;20080;-70
2022/08/05 04:10:27;;;;;;;7.30;3.42;;;;;;;22.70;45.32;98682.22;4484363;32;20546;-70
2022/08/05 04:13:05;;;;;;;4.05;2.65;;;;;;;22.76;45.26;98682.13;4485287;31;20515;-72
2022/08/05 04:15:32;;;;;;;4.15;2.80;;;;;;;22.82;45.04;98683.13;4485202;31;20127;-71
2022/08/05 04:18:04;;;;;;;3.65;2.58;;;;;;;22.89;44.62;98678.53;4484361;32;20493;-71
2022/08/05 04:20:34;;;;;;;4.25;2.78;;;;;;;23.04;44.09;98673.69;4485215;31;20076;-71
2022/08/05 04:23:01;;;;;;;4.18;2.70;;;;;;;23.06;44.17;98673.44;4485274;32;20221;-71
2022/08/05 04:25:29;;;;;;;5.65;2.70;;;;;;;23.12;44.00;98675.28;4485181;32;20577;-69
2022/08/05 04:28:18;;;;;;;18.30;3.62;;;;;;;23.24;43.79;98671.84;4484706;31;20096;-69
2022/08/05 04:30:45;;;;;;;4.85;2.60;;;;;;;23.26;43.60;98675.94;4484890;31;20084;-69
2022/08/05 04:33:14;;;;;;;7.75;2.58;;;;;;;23.36;42.96;98672.75;4485355;31;20088;-69
2022/08/05 04:35:42;;;;;;;9.00;2.37;;;;;;;23.49;42.61;98672.59;4485277;31;20119;-69
2022/08/05 04:38:29;;;;;;;7.85;2.65;;;;;;;23.56;42.69;98676.03;4469840;32;20538;-69
2022/08/05 04:41:06;;;;;;;5.35;2.42;;;;;;;23.73;43.16;98681.56;4469654;32;20076;-69
2022/08/05 04:43:37;;;;;;;4.12;2.40;;;;;;;23.76;42.88;98682.97;4469320;32;20614;-69
2022/08/05 04:46:14;;;;;;;4.20;3.28;;;;;;;23.89;42.62;98679.34;4469442;32;20111;-69
2022/08/05 04:48:54;;;;;;;5.40;2.60;;;;;;;23.97;42.31;98675.53;4469637;32;20455;-69
2022/08/05 04:51:25;;;;;;;6.45;2.83;;;;;;;23.93;42.77;98685.88;4469495;32;20610;-69
2022/08/05 04:53:56;;;;;;;9.55;2.87;;;;;;;24.07;42.59;98681.16;4469440;32;20467;-69
2022/08/05 04:56:27;;;;;;;5.15;2.80;;;;;;;24.05;42.61;98684.06;4469496;32;20097;-69
2022/08/05 04:59:03;;;;;;;8.15;3.03;;;;;;;24.21;42.44;98682.63;4469163;32;20435;-69
2022/08/05 05:01:51;;;;;;;10.50;2.87;;;;;;;24.25;42.19;98677.63;4468913;32;20072;-69
2022/08/05 05:04:38;;;;;;;7.32;3.12;;;;;;;24.10;42.35;98675.34;4469573;32;20088;-69
2022/08/05 05:07:16;;;;;;;5.10;2.95;;;;;;;24.29;42.48;98680.66;4468340;32;20100;-69
2022/08/05 05:09:44;;;;;;;24.45;3.42;;;;;;;24.37;41.83;98678.47;4480818;32;20516;-69
2022/08/05 05:12:11;;;;;;;7.35;2.60;;;;;;;24.43;41.56;98679.41;4482906;31;20175;-69
2022/08/05 05:14:39;;;;;;;4.60;2.92;;;;;;;24.53;42.04;98681.53;4482296;31;20477;-69
2022/08/05 05:17:16;;;;;;;11.32;2.60;;;;;;;24.60;41.16;98676.91;4483147;32;20096;-69
2022/08/05 05:19:54;;;;;;;;;;;;;;;24.70;41.64;98681.72;4483298;32;20100;-69
2022/08/05 05:22:23;;;;;;;7.72;2.58;;;;;;;24.79;41.32;98686.47;4484928;31;19979;-69
2022/08/05 05:24:53;;;;;;;5.70;2.67;;;;;;;24.87;41.21;98679.97;4484747;31;20080;-69
2022/08/05 05:27:27;;;;;;;3.28;2.45;;;;;;;24.92;41.11;98680.09;4483733;32;20092;-69
2022/08/05 05:30:09;;;;;;;3.37;2.28;;;;;;;25.03;41.28;98674.97;4484373;31;20100;-69
2022/08/05 05:32:56;;;;;;;5.00;2.55;;;;;;;25.13;40.91;98675.16;4473023;32;20171;-69
2022/08/05 05:35:28;;;;;;;28.15;4.55;;;;;;;25.18;40.79;98677.16;4484048;32;20100;-69
2022/08/05 05:38:05;;;;;;;7.18;2.37;;;;;;;25.26;39.78;98674.13;4480478;31;20233;-69
2022/08/05 05:40:39;;;;;;;12.70;2.72;;;;;;;25.42;39.94;98668.06;4482198;31;20114;-71
2022/08/05 05:43:18;;;;;;;13.23;3.75;;;;;;;25.51;39.87;98665.81;4483725;31;20092;-70
2022/08/05 05:46:06;;;;;;;6.22;2.60;;;;;;;25.51;39.22;98671.19;4483310;31;20108;-69
2022/08/05 05:48:42;;;;;;;5.70;2.40;;;;;;;25.55;39.30;98666.97;4483003;31;20137;-69
2022/08/05 05:51:10;;;;;;;6.18;2.78;;;;;;;25.56;39.08;98671.31;4483295;32;20096;-69
2022/08/05 05:53:42;;;;;;;8.00;3.05;;;;;;;25.53;39.49;98657.53;4483010;32;20108;-69
2022/08/05 05:56:29;;;;;;;15.32;2.62;;;;;;;25.58;39.24;98660.34;4483285;32;20112;-69
2022/08/05 05:59:03;;;;;;;9.52;2.95;;;;;;;25.71;39.68;98660.06;4483840;31;20844;-70
2022/08/05 06:01:33;;;;;;;8.70;2.45;;;;;;;25.85;38.17;98669.44;4483595;31;20126;-70
2022/08/05 06:04:06;;;;;;;7.60;2.60;;;;;;;25.83;38.33;98674.25;4482884;32;20083;-69
2022/08/05 06:06:34;;;;;;;6.05;2.58;;;;;;;25.99;38.45;98671.88;4483503;31;20184;-70
2022/08/05 06:09:03;;;;;;;6.43;2.33;;;;;;;26.13;38.04;98669.69;4483281;31;20096;-69
2022/08/05 06:11:31;;;;;;;12.07;2.83;;;;;;;26.18;38.22;98670.62;4483658;31;20147;-69
2022/08/05 06:13:59;;;;;;;3.75;2.85;;;;;;;26.14;38.05;98668.66;4472593;32;20149;-70
2022/08/05 06:16:28;;;;;;;3.17;2.50;;;;;;;26.06;37.67;98677.09;4483319;31;20131;-69
2022/08/05 06:19:04;;;;;;;3.15;2.30;;;;;;;26.19;38.19;98676.78;4483259;31;20754;-69
2022/08/05 06:21:34;;;;;;;5.18;2.62;;;;;;;26.29;37.48;98678.84;4468270;32;20116;-70
2022/08/05 06:24:05;;;;;;;6.10;2.78;;;;;;;26.30;37.65;98680.47;4479689;32;20507;-69
2022/08/05 06:26:41;;;;;;;4.25;2.60;;;;;;;26.43;37.48;98676.69;4483525;31;20099;-70
2022/08/05 06:29:20;;;;;;;6.30;2.55;;;;;;;26.56;37.08;98681.72;4482100;31;20488;-69
2022/08/05 06:32:08;;;;;;;3.42;2.67;;;;;;;26.64;36.88;98678.62;4482288;32;20552;-69
2022/08/05 06:34:52;;;;;;;3.87;2.55;;;;;;;26.72;36.36;98678.28;4483533;31;20109;-70
2022/08/05 06:37:25;;;;;;;6.57;2.62;;;;;;;26.85;36.58;98673.63;4474353;31;20461;-70
2022/08/05 06:40:13;;;;;;;9.05;2.60;;;;;;;26.99;36.40;98677.56;4474317;32;20108;-69
2022/08/05 06:42:50;;;;;;;7.62;2.62;;;;;;;27.18;36.05;98674.63;4483823;31;20068;-70
2022/08/05 06:45:20;;;;;;;7.57;2.70;;;;;;;27.18;35.65;98674.63;4481175;32;20176;-70
2022/08/05 06:48:08;;;;;;;10.35;4.60;;;;;;;27.06;35.27;98680.09;4471811;31;20115;-69
2022/08/05 06:50:55;;;;;;;3.05;2.20;;;;;;;27.34;35.45;98683.72;4480506;31;20096;-70
2022/08/05 06:53:23;;;;;;;13.98;2.95;;;;;;;27.47;35.44;98674.50;4482618;32;20470;-69
2022/08/05 06:55:59;;;;;;;6.68;2.75;;;;;;;27.52;35.51;98688.00;4483668;31;20157;-69
2022/08/05 06:58:26;;;;;;;8.90;2.70;;;;;;;27.60;36.17;98687.53;4474149;32;20104;-70
2022/08/05 07:01:04;;;;;;;6.85;2.67;;;;;;;27.70;35.64;98690.37;4476505;32;20119;-70
2022/08/05 07:03:32;;;;;;;5.55;2.83;;;;;;;27.69;35.63;98690.63;4483979;32;20104;-70
2022/08/05 07:06:02;;;;;;;4.55;2.75;;;;;;;27.85;35.02;98684.34;4482044;31;20446;-70
2022/08/05 07:08:43;;;;;;;9.93;3.40;;;;;;;27.93;35.25;98686.59;4482419;32;20096;-69
2022/08/05 07:11:18;;;;;;;4.47;2.97;;;;;;;27.97;34.77;98690.44;4484626;31;20436;-70
2022/08/05 07:16:59;;;;;;;8.60;3.10;;;;;;;28.01;36.19;98696.16;4484540;32;20123;-70
2022/08/05 07:19:49;;;;;;;7.20;2.70;;;;;;;28.14;34.89;98703.00;4484251;32;20116;-70
2022/08/05 07:22:37;;;;;;;6.97;2.62;;;;;;;28.41;35.69;98699.50;4483429;32;20193;-69
2022/08/05 07:25:05;;;;;;;5.32;3.03;;;;;;;28.52;35.39;98690.41;4484768;31;20552;-70
2022/08/05 07:27:51;;;;;;;9.65;2.97;;;;;;;28.35;34.47;98695.94;4473346;32;20081;-70
2022/08/05 07:30:27;;;;;;;10.57;3.40;;;;;;;28.44;34.62;98694.38;4476344;32;20153;-69
2022/08/05 07:33:01;;;;;;;8.33;2.87;;;;;;;28.75;35.13;98686.59;4483943;31;20103;-69
2022/08/05 07:35:31;;;;;;;7.15;3.00;;;;;;;28.88;35.57;98687.22;4483484;31;20231;-70
2022/08/05 07:38:19;;;;;;;8.93;3.00;;;;;;;29.04;33.87;98688.94;4483300;31;20156;-70
2022/08/05 07:41:09;;;;;;;3.58;2.65;;;;;;;28.92;34.14;98680.22;4479779;31;20092;-70
2022/08/05 07:43:57;;;;;;;9.75;2.78;;;;;;;28.93;33.65;98685.34;4484185;31;20587;-70
2022/08/05 07:46:26;;;;;;;11.60;2.92;;;;;;;29.05;34.52;98674.37;4484410;31;20114;-70
2022/08/05 07:48:55;;;;;;;9.65;2.90;;;;;;;28.97;33.71;98680.28;4483280;32;20115;-70
2022/08/05 07:51:32;;;;;;;6.97;2.58;;;;;;;29.23;34.72;98672.34;4481866;32;20829;-72
2022/08/05 07:54:05;;;;;;;3.35;2.65;;;;;;;29.49;34.62;98679.47;4483204;32;20092;-71
2022/08/05 07:56:34;;;;;;;5.40;2.80;;;;;;;29.54;33.80;98681.41;4484215;31;20386;-71
2022/08/05 07:59:21;;;;;;;9.73;2.95;;;;;;;29.40;33.77;98680.25;4485263;31;20111;-71
2022/08/05 08:02:06;;;;;;;;;;;;;;;29.45;33.63;98683.81;4483413;31;20142;-71
2022/08/05 08:04:45;;;;;;;5.03;2.60;;;;;;;29.47;32.79;98681.63;4479789;32;20333;-70
2022/08/05 08:07:12;;;;;;;8.30;2.85;;;;;;;29.63;34.04;98677.13;4484876;31;20146;-70
2022/08/05 08:09:42;;;;;;;7.22;2.80;;;;;;;29.89;33.22;98686.12;4484426;31;20104;-70
2022/08/05 08:12:12;;;;;;;5.32;2.83;;;;;;;29.94;32.89;98676.44;4484925;32;20152;-70
2022/08/05 08:14:59;;;;;;;5.37;2.92;;;;;;;29.95;33.75;98678.03;4469341;32;20123;-71
2022/08/05 08:17:31;;;;;;;17.65;3.10;;;;;;;30.01;33.23;98672.41;4469542;32;20512;-70
2022/08/05 08:19:58;;;;;;;12.68;3.95;;;;;;;30.02;33.69;98674.00;4469571;32;20421;-70
2022/08/05 08:22:58;;;;;;;6.20;2.72;;;;;;;30.06;32.00;98679.69;4469633;32;20100;-70
2022/08/05 08:25:29;;;;;;;5.80;2.65;;;;;;;30.07;33.11;98686.72;4469608;32;20089;-70
2022/08/05 08:28:17;;;;;;;5.97;2.95;;;;;;;30.31;33.64;98683.50;4483915;32;20096;-70
2022/08/05 08:31:07;;;;;;;6.80;2.95;;;;;;;30.48;32.58;98675.16;4481597;32;20080;-71
2022/08/05 08:33:34;;;;;;;7.50;3.00;;;;;;;30.66;32.14;98673.81;4484808;32;20096;-71
2022/08/05 08:36:07;;;;;;;5.00;2.80;;;;;;;30.96;32.29;98671.06;4484193;31;20450;-71
2022/08/05 08:38:55;;;;;;;7.78;2.65;;;;;;;31.15;31.13;98675.94;4482275;32;20092;-71
2022/08/05 08:41:25;;;;;;;4.43;2.75;;;;;;;31.17;31.42;98670.25;4484625;31;20088;-71
2022/08/05 08:44:17;;;;;;;10.75;2.90;;;;;;;31.13;31.43;98675.41;4474913;32;20123;-71
2022/08/05 08:47:06;;;;;;;11.10;3.10;;;;;;;30.92;31.05;98674.59;4482305;32;20084;-71
2022/08/05 08:49:56;;;;;;;11.10;3.40;;;;;;;31.11;31.62;98678.38;4484586;31;20088;-71
2022/08/05 08:52:47;;;;;;;8.13;2.70;;;;;;;31.19;31.18;98678.88;4483865;32;20119;-71
2022/08/05 08:55:20;;;;;;;3.03;2.70;;;;;;;31.28;30.16;98682.63;4484832;31;20084;-71
2022/08/05 08:58:09;;;;;;;4.90;2.60;;;;;;;31.43;30.17;98679.91;4483924;31;20096;-71
2022/08/05 09:00:41;;;;;;;7.87;2.43;;;;;;;31.55;30.99;98676.88;4475508;32;20092;-71
2022/08/05 09:03:10;;;;;;;8.43;4.03;;;;;;;31.73;29.42;98671.94;4481211;31;20446;-71
2022/08/05 09:05:38;;;;;;;7.30;2.90;;;;;;;32.01;30.05;98679.34;4482213;31;20093;-71
2022/08/05 09:08:25;;;;;;;5.90;2.87;;;;;;;31.97;29.53;98678.28;4476614;32;20096;-71
2022/08/05 09:10:56;;;;;;;10.18;3.00;;;;;;;32.08;28.74;98661.97;4479981;31;20494;-71
2022/08/05 09:13:24;;;;;;;10.32;2.80;;;;;;;32.12;30.09;98668.50;4480572;31;20088;-71
2022/08/05 09:15:58;;;;;;;6.93;2.78;;;;;;;31.99;29.01;98654.47;4479750;31;20152;-71
2022/08/05 09:18:26;;;;;;;8.25;2.92;;;;;;;31.97;30.17;98658.53;4481018;31;20148;-71
2022/08/05 09:20:53;;;;;;;3.60;2.65;;;;;;;32.00;29.52;98653.34;4480510;31;20765;-71
2022/08/05 09:23:22;;;;;;;5.28;3.00;;;;;;;32.27;28.53;98668.38;4480216;31;20116;-71
2022/08/05 09:26:09;;;;;;;6.68;2.90;;;;;;;32.35;28.11;98662.34;4480998;31;20096;-71
2022/08/05 09:28:42;;;;;;;27.87;4.15;;;;;;;32.70;28.43;98654.22;4481303;31;20088;-71
2022/08/05 09:31:12;;;;;;;9.10;2.85;;;;;;;32.82;28.02;98654.63;4479395;31;20195;-71
2022/08/05 09:34:04;;;;;;;13.68;2.80;;;;;;;32.96;27.60;98657.50;4477949;32;20138;-71
2022/08/05 09:36:51;;;;;;;8.50;2.70;;;;;;;33.17;27.58;98654.53;4480383;32;20116;-71
2022/08/05 09:39:26;;;;;;;4.07;3.37;;;;;;;33.22;27.52;98651.81;4483292;31;20462;-71
2022/08/05 09:42:16;;;;;;;15.50;3.00;;;;;;;33.01;28.05;98645.78;4469210;32;20092;-71
2022/08/05 09:44:55;;;;;;;6.15;3.30;;;;;;;33.22;27.26;98654.53;4484573;32;20088;-71
2022/08/05 09:47:29;;;;;;;5.15;3.00;;;;;;;33.18;27.38;98646.09;4483568;31;20414;-71
2022/08/05 09:50:19;;;;;;;5.50;2.62;;;;;;;33.60;27.98;98641.00;4484454;32;20116;-71
2022/08/05 09:53:06;;;;;;;5.18;2.85;;;;;;;33.88;26.49;98642.00;4483810;31;20163;-71
2022/08/05 09:55:39;;;;;;;6.43;3.12;;;;;;;34.00;26.78;98633.38;4483345;31;20107;-71
2022/08/05 09:58:26;;;;;;;9.38;2.95;;;;;;;34.16;26.52;98627.72;4483105;31;20096;-71
2022/08/05 10:01:03;;;;;;;4.10;2.75;;;;;;;34.10;26.11;98627.00;4482993;31;20108;-71
2022/08/05 10:04:09;;;;;;;12.27;2.97;;;;;;;33.76;26.71;98625.31;4482984;31;20486;-71
2022/08/05 10:06:41;;;;;;;6.65;2.70;;;;;;;34.00;27.05;98619.00;4471862;32;20093;-71
2022/08/05 10:09:21;;;;;;;2.92;2.70;;;;;;;34.29;25.49;98624.25;4482110;32;20101;-71
2022/08/05 10:12:06;;;;;;;5.72;2.80;;;;;;;34.36;25.46;98615.75;4482575;31;20484;-70
2022/08/05 10:15:12;;;;;;;7.55;3.00;;;;;;;34.46;26.13;98613.66;4481695;32;20152;-71
2022/08/05 10:17:42;;;;;;;4.87;2.80;;;;;;;34.50;25.49;98613.03;4483077;31;20440;-70
2022/08/05 10:20:24;;;;;;;6.60;3.80;;;;;;;34.60;25.27;98613.66;4481001;32;20162;-70
2022/08/05 10:22:51;;;;;;;19.25;3.45;;;;;;;34.36;25.99;98613.81;4481903;32;20104;-70
2022/08/05 10:25:19;;;;;;;8.82;3.30;;;;;;;34.19;24.80;98597.19;4477420;32;20092;-72
2022/08/05 10:27:46;;;;;;;4.12;2.92;;;;;;;34.04;25.98;98603.72;4469820;32;20438;-70
2022/08/05 10:30:34;;;;;;;6.72;2.90;;;;;;;34.05;25.79;98598.00;4471895;32;20126;-70
2022/08/05 10:33:25;;;;;;;9.18;2.87;;;;;;;34.23;25.01;98590.06;4481834;32;20464;-70
2022/08/05 10:35:55;;;;;;;6.35;2.95;;;;;;;34.52;25.35;98594.50;4475627;32;20633;-71
2022/08/05 10:38:28;;;;;;;12.55;3.40;;;;;;;34.09;25.62;98599.00;4482312;32;20096;-71
2022/08/05 10:41:05;;;;;;;11.80;2.90;;;;;;;34.31;25.82;98600.31;4483142;31;20103;-71
2022/08/05 10:43:44;;;;;;;4.50;2.78;;;;;;;34.64;25.93;98592.09;4482842;32;20108;-71
2022/08/05 10:46:15;;;;;;;9.75;3.10;;;;;;;34.83;23.83;98595.56;4482478;31;20118;-71
2022/08/05 10:48:45;;;;;;;9.57;3.22;;;;;;;34.57;25.58;98597.16;4484800;32;20100;-72
2022/08/05 10:51:23;;;;;;;5.00;3.12;;;;;;;34.55;24.27;98583.03;4485585;31;20126;-72
2022/08/05 10:53:57;;;;;;;7.12;3.40;;;;;;;34.79;23.99;98580.16;4483100;31;20169;-71
2022/08/05 10:56:43;;;;;;;6.35;3.87;;;;;;;34.85;24.50;98581.66;4483540;32;20088;-72
2022/08/05 10:59:19;;;;;;;3.25;2.90;;;;;;;34.79;24.09;98583.69;4483644;31;20148;-72
2022/08/05 11:02:07;;;;;;;4.87;2.92;;;;;;;35.10;24.37;98577.63;4482477;31;20469;-72
2022/08/05 11:04:47;;;;;;;7.32;2.95;;;;;;;35.01;25.00;98579.44;4480012;32;20114;-71
2022/08/05 11:07:17;;;;;;;76.85;5.87;;;;;;;34.60;23.51;98570.13;4483837;31;20088;-71
2022/08/05 11:10:01;;;;;;;9.32;2.85;;;;;;;34.90;24.36;98573.41;4485255;31;20096;-70
2022/08/05 11:12:37;;;;;;;7.53;2.95;;;;;;;34.85;24.26;98573.50;4484118;32;20114;-71
2022/08/05 11:15:17;;;;;;;3.30;2.90;;;;;;;35.30;23.75;98564.72;4483834;31;20140;-70
2022/08/05 11:17:55;;;;;;;4.50;2.70;;;;;;;35.25;23.20;98571.06;4483027;31;20142;-70
2022/08/05 11:20:36;;;;;;;;;;;;;;;35.10;23.79;98569.47;4481300;32;20104;-71
2022/08/05 11:23:29;;;;;;;8.93;3.20;;;;;;;35.08;24.08;98562.69;4483898;31;19984;-70
2022/08/05 11:26:18;;;;;;;5.35;3.00;;;;;;;34.91;24.83;98572.28;4483046;32;20127;-70
2022/08/05 11:29:02;;;;;;;5.68;3.00;;;;;;;35.36;23.93;98560.75;4483688;32;20450;-71
2022/08/05 11:31:41;;;;;;;7.00;3.12;;;;;;;35.32;23.32;98551.59;4484681;31;20100;-71
2022/08/05 11:34:40;;;;;;;4.25;2.95;;;;;;;35.17;23.41;98549.97;4482216;31;20463;-71
2022/08/05 11:37:38;;;;;;;;;;;;;;;35.18;23.98;98555.09;4482144;32;20153;-71
2022/08/05 11:41:01;;;;;;;4.97;2.85;;;;;;;35.31;23.50;98550.00;4483980;32;19996;-71
2022/08/05 11:44:02;;;;;;;8.73;2.90;;;;;;;35.74;24.04;98557.72;4432972;32;20528;-71
2022/08/05 11:46:49;;;;;;;8.93;3.15;;;;;;;35.88;24.05;98557.69;4436874;32;20187;-72
2022/08/05 11:49:36;;;;;;;5.93;3.10;;;;;;;36.26;23.86;98564.66;4440648;32;20527;-71
2022/08/05 11:52:04;;;;;;;3.67;3.15;;;;;;;36.45;22.50;98556.28;4426792;32;20454;-71
2022/08/05 11:54:41;;;;;;;3.60;2.97;;;;;;;36.26;22.73;98560.00;4441226;32;20116;-72
2022/08/05 11:57:14;;;;;;;7.20;3.17;;;;;;;36.21;22.78;98560.13;4442535;32;20182;-71
2022/08/05 11:59:54;;;;;;;10.60;3.12;;;;;;;36.50;22.76;98567.84;4441671;32;20136;-71
2022/08/05 12:02:30;;;;;;;8.25;2.97;;;;;;;35.62;22.84;98557.47;4441915;32;20135;-70
2022/08/05 12:05:01;;;;;;;5.60;3.25;;;;;;;35.53;22.68;98560.91;4442381;32;20100;-71
2022/08/05 12:07:36;;;;;;;4.82;3.00;;;;;;;35.37;22.38;98562.38;4435971;32;20114;-70
2022/08/05 12:10:27;;;;;;;7.62;3.05;;;;;;;35.00;23.14;98556.06;4440842;32;20135;-71
2022/08/05 12:13:15;;;;;;;4.97;2.60;;;;;;;35.26;23.59;98556.31;4442872;32;20101;-72
2022/08/05 12:16:07;;;;;;;3.80;2.92;;;;;;;35.89;22.75;98560.09;4440869;32;20749;-72
2022/08/05 12:18:42;;;;;;;5.90;3.22;;;;;;;36.44;23.16;98558.19;4486498;31;20583;-72
2022/08/05 12:21:20;;;;;;;3.40;3.00;;;;;;;36.16;21.41;98547.44;4486549;31;20149;-72
2022/08/05 12:23:57;;;;;;;8.60;3.00;;;;;;;36.46;22.64;98550.53;4484674;31;20155;-72